sensor_id;sensor_type;location;lat;lon;timestamp;pressure;altitude;pressure_sealevel;temperature;humidity
22743;BME280;11538;48.884;8.696;2022-11-15T00:01:15;98506.91;;;10.07;100.00
22743;BME280;11538;48.884;8.696;2022-11-15T00:03:44;98502.88;;;10.04;100.00
22743;BME280;11538;48.884;8.696;2022-11-15T00:06:11;98497.44;;;10.04;100.00
22743;BME280;11538;48.884;8.696;2022-11-15T00:08:38;98491.34;;;9.99;100.00
22743;BME280;11538;48.884;8.696;2022-11-15T00:11:05;98491.44;;;9.93;100.00
22743;BME280;11538;48.884;8.696;2022-11-15T00:13:32;98490.94;;;9.91;100.00
22743;BME280;11538;48.884;8.696;2022-11-15T00:16:01;98486.94;;;9.89;100.00
22743;BME280;11538;48.884;8.696;2022-11-15T00:18:28;98478.91;;;9.84;100.00
22743;BME280;11538;48.884;8.696;2022-11-15T00:21:15;98486.31;;;9.78;100.00
22743;BME280;11538;48.884;8.696;2022-11-15T00:23:41;98481.22;;;9.76;100.00
22743;BME280;11538;48.884;8.696;2022-11-15T00:26:12;98484.84;;;9.86;100.00
22743;BME280;11538;48.884;8.696;2022-11-15T00:28:39;98477.38;;;9.91;100.00
22743;BME280;11538;48.884;8.696;2022-11-15T00:31:10;98478.59;;;9.99;100.00
22743;BME280;11538;48.884;8.696;2022-11-15T00:33:38;98478.09;;;9.97;100.00
22743;BME280;11538;48.884;8.696;2022-11-15T00:36:07;98475.09;;;9.99;100.00
22743;BME280;11538;48.884;8.696;2022-11-15T00:38:38;98478.59;;;9.99;100.00
22743;BME280;11538;48.884;8.696;2022-11-15T00:41:07;98468.84;;;9.98;100.00
22743;BME280;11538;48.884;8.696;2022-11-15T00:43:35;98470.78;;;9.98;100.00
22743;BME280;11538;48.884;8.696;2022-11-15T00:46:02;98473.50;;;9.98;100.00
22743;BME280;11538;48.884;8.696;2022-11-15T00:48:29;98474.88;;;9.95;100.00
22743;BME280;11538;48.884;8.696;2022-11-15T00:50:57;98480.91;;;9.92;100.00
22743;BME280;11538;48.884;8.696;2022-11-15T00:53:24;98484.22;;;9.89;100.00
22743;BME280;11538;48.884;8.696;2022-11-15T00:55:50;98478.31;;;9.87;100.00
22743;BME280;11538;48.884;8.696;2022-11-15T00:58:17;98471.28;;;9.86;100.00
22743;BME280;11538;48.884;8.696;2022-11-15T01:00:44;98479.41;;;9.86;100.00
22743;BME280;11538;48.884;8.696;2022-11-15T01:03:11;98468.88;;;9.84;100.00
22743;BME280;11538;48.884;8.696;2022-11-15T01:05:38;98473.00;;;9.82;100.00
22743;BME280;11538;48.884;8.696;2022-11-15T01:08:04;98468.78;;;9.75;100.00
22743;BME280;11538;48.884;8.696;2022-11-15T01:10:31;98466.38;;;9.74;100.00
22743;BME280;11538;48.884;8.696;2022-11-15T01:12:58;98467.78;;;9.71;100.00
22743;BME280;11538;48.884;8.696;2022-11-15T01:15:25;98463.97;;;9.72;100.00
22743;BME280;11538;48.884;8.696;2022-11-15T01:17:51;98455.03;;;9.72;100.00
22743;BME280;11538;48.884;8.696;2022-11-15T01:20:18;98455.84;;;9.72;100.00
22743;BME280;11538;48.884;8.696;2022-11-15T01:22:45;98462.66;;;9.70;100.00
22743;BME280;11538;48.884;8.696;2022-11-15T01:25:12;98453.75;;;9.69;100.00
22743;BME280;11538;48.884;8.696;2022-11-15T01:27:38;98445.31;;;9.71;100.00
22743;BME280;11538;48.884;8.696;2022-11-15T01:30:06;98449.13;;;9.70;100.00
22743;BME280;11538;48.884;8.696;2022-11-15T01:32:33;98451.03;;;9.69;100.00
22743;BME280;11538;48.884;8.696;2022-11-15T01:35:00;98444.50;;;9.70;100.00
22743;BME280;11538;48.884;8.696;2022-11-15T01:37:26;98447.50;;;9.69;100.00
22743;BME280;11538;48.884;8.696;2022-11-15T01:39:53;98441.09;;;9.64;100.00
22743;BME280;11538;48.884;8.696;2022-11-15T01:42:20;98442.50;;;9.62;100.00
22743;BME280;11538;48.884;8.696;2022-11-15T01:44:48;98445.41;;;9.65;100.00
22743;BME280;11538;48.884;8.696;2022-11-15T01:47:35;98439.19;;;9.65;100.00
22743;BME280;11538;48.884;8.696;2022-11-15T01:50:08;98444.13;;;9.63;100.00
22743;BME280;11538;48.884;8.696;2022-11-15T01:52:37;98437.09;;;9.62;100.00
22743;BME280;11538;48.884;8.696;2022-11-15T01:57:31;98430.25;;;9.64;100.00
22743;BME280;11538;48.884;8.696;2022-11-15T02:00:00;98426.78;;;9.64;100.00
22743;BME280;11538;48.884;8.696;2022-11-15T02:02:27;98425.16;;;9.63;100.00
22743;BME280;11538;48.884;8.696;2022-11-15T02:04:54;98434.06;;;9.63;100.00
22743;BME280;11538;48.884;8.696;2022-11-15T02:07:22;98435.19;;;9.62;100.00
22743;BME280;11538;48.884;8.696;2022-11-15T02:09:49;98428.66;;;9.63;100.00
22743;BME280;11538;48.884;8.696;2022-11-15T02:12:19;98433.56;;;9.61;100.00
22743;BME280;11538;48.884;8.696;2022-11-15T02:14:51;98421.47;;;9.59;100.00
22743;BME280;11538;48.884;8.696;2022-11-15T02:26:00;98410.72;;;9.54;100.00
22743;BME280;11538;48.884;8.696;2022-11-15T02:29:07;98403.41;;;9.54;100.00
22743;BME280;11538;48.884;8.696;2022-11-15T02:34:26;98393.50;;;9.49;100.00
22743;BME280;11538;48.884;8.696;2022-11-15T02:37:15;98402.91;;;9.52;100.00
22743;BME280;11538;48.884;8.696;2022-11-15T02:39:51;98402.50;;;9.59;100.00
22743;BME280;11538;48.884;8.696;2022-11-15T02:42:25;98400.09;;;9.57;100.00
22743;BME280;11538;48.884;8.696;2022-11-15T02:45:17;98391.78;;;9.54;100.00
22743;BME280;11538;48.884;8.696;2022-11-15T02:47:48;98386.47;;;9.48;100.00
22743;BME280;11538;48.884;8.696;2022-11-15T02:50:20;98383.25;;;9.46;100.00
22743;BME280;11538;48.884;8.696;2022-11-15T02:52:49;98370.34;;;9.43;100.00
22743;BME280;11538;48.884;8.696;2022-11-15T02:55:32;98373.03;;;9.43;100.00
22743;BME280;11538;48.884;8.696;2022-11-15T03:00:35;98373.72;;;9.49;100.00
22743;BME280;11538;48.884;8.696;2022-11-15T03:06:00;98366.03;;;9.42;100.00
22743;BME280;11538;48.884;8.696;2022-11-15T03:08:32;98369.50;;;9.43;100.00
22743;BME280;11538;48.884;8.696;2022-11-15T03:11:15;98372.81;;;9.40;100.00
22743;BME280;11538;48.884;8.696;2022-11-15T03:19:14;98364.81;;;9.34;100.00
22743;BME280;11538;48.884;8.696;2022-11-15T03:21:43;98360.50;;;9.33;100.00
22743;BME280;11538;48.884;8.696;2022-11-15T03:24:12;98357.19;;;9.36;100.00
22743;BME280;11538;48.884;8.696;2022-11-15T03:26:42;98355.78;;;9.39;100.00
22743;BME280;11538;48.884;8.696;2022-11-15T03:29:16;98353.09;;;9.39;100.00
22743;BME280;11538;48.884;8.696;2022-11-15T03:31:46;98343.66;;;9.36;100.00
22743;BME280;11538;48.884;8.696;2022-11-15T03:34:30;98347.47;;;9.35;100.00
22743;BME280;11538;48.884;8.696;2022-11-15T03:36:59;98345.38;;;9.32;100.00
22743;BME280;11538;48.884;8.696;2022-11-15T03:39:26;98337.06;;;9.29;100.00
22743;BME280;11538;48.884;8.696;2022-11-15T03:47:17;98335.84;;;9.35;100.00
22743;BME280;11538;48.884;8.696;2022-11-15T03:49:50;98325.91;;;9.30;100.00
22743;BME280;11538;48.884;8.696;2022-11-15T03:52:20;98328.94;;;9.29;100.00
22743;BME280;11538;48.884;8.696;2022-11-15T03:54:49;98335.34;;;9.33;100.00
22743;BME280;11538;48.884;8.696;2022-11-15T03:57:16;98322.31;;;9.35;100.00
22743;BME280;11538;48.884;8.696;2022-11-15T03:59:43;98337.13;;;9.38;100.00
22743;BME280;11538;48.884;8.696;2022-11-15T04:02:11;98337.34;;;9.41;100.00
22743;BME280;11538;48.884;8.696;2022-11-15T04:04:38;98332.44;;;9.43;100.00
22743;BME280;11538;48.884;8.696;2022-11-15T04:07:05;98338.34;;;9.45;100.00
22743;BME280;11538;48.884;8.696;2022-11-15T04:09:31;98346.75;;;9.44;100.00
22743;BME280;11538;48.884;8.696;2022-11-15T04:11:58;98338.94;;;9.42;100.00
22743;BME280;11538;48.884;8.696;2022-11-15T04:14:25;98335.63;;;9.45;100.00
22743;BME280;11538;48.884;8.696;2022-11-15T04:16:52;98335.63;;;9.45;100.00
22743;BME280;11538;48.884;8.696;2022-11-15T04:19:19;98324.59;;;9.42;100.00
22743;BME280;11538;48.884;8.696;2022-11-15T04:22:04;98330.00;;;9.42;100.00
22743;BME280;11538;48.884;8.696;2022-11-15T04:24:49;98330.84;;;9.42;100.00
22743;BME280;11538;48.884;8.696;2022-11-15T04:27:16;98326.53;;;9.41;100.00
22743;BME280;11538;48.884;8.696;2022-11-15T04:29:43;98330.00;;;9.42;100.00
22743;BME280;11538;48.884;8.696;2022-11-15T04:32:09;98318.91;;;9.43;100.00
22743;BME280;11538;48.884;8.696;2022-11-15T04:34:36;98326.41;;;9.46;100.00
22743;BME280;11538;48.884;8.696;2022-11-15T04:37:04;98311.78;;;9.47;100.00
22743;BME280;11538;48.884;8.696;2022-11-15T04:39:42;98306.03;;;9.49;100.00
22743;BME280;11538;48.884;8.696;2022-11-15T04:42:10;98312.28;;;9.49;100.00
22743;BME280;11538;48.884;8.696;2022-11-15T04:44:37;98301.72;;;9.48;100.00
22743;BME280;11538;48.884;8.696;2022-11-15T04:47:04;98308.75;;;9.49;100.00
22743;BME280;11538;48.884;8.696;2022-11-15T04:49:31;98305.25;;;9.48;100.00
22743;BME280;11538;48.884;8.696;2022-11-15T04:51:57;98302.53;;;9.48;100.00
22743;BME280;11538;48.884;8.696;2022-11-15T04:54:24;98306.84;;;9.49;100.00
22743;BME280;11538;48.884;8.696;2022-11-15T04:56:51;98297.13;;;9.48;100.00
22743;BME280;11538;48.884;8.696;2022-11-15T04:59:18;98296.31;;;9.48;100.00
22743;BME280;11538;48.884;8.696;2022-11-15T05:01:44;98290.13;;;9.47;100.00
22743;BME280;11538;48.884;8.696;2022-11-15T05:04:11;98293.94;;;9.46;100.00
22743;BME280;11538;48.884;8.696;2022-11-15T05:06:48;98296.31;;;9.48;100.00
22743;BME280;11538;48.884;8.696;2022-11-15T05:09:17;98289.00;;;9.48;100.00
22743;BME280;11538;48.884;8.696;2022-11-15T05:11:45;98297.81;;;9.54;100.00
22743;BME280;11538;48.884;8.696;2022-11-15T05:14:12;98297.91;;;9.63;100.00
22743;BME280;11538;48.884;8.696;2022-11-15T05:16:39;98296.66;;;9.69;100.00
22743;BME280;11538;48.884;8.696;2022-11-15T05:19:07;98296.97;;;9.68;100.00
22743;BME280;11538;48.884;8.696;2022-11-15T05:21:34;98293.25;;;9.63;100.00
22743;BME280;11538;48.884;8.696;2022-11-15T05:24:01;98289.44;;;9.64;100.00
22743;BME280;11538;48.884;8.696;2022-11-15T05:26:28;98293.47;;;9.67;100.00
22743;BME280;11538;48.884;8.696;2022-11-15T05:28:57;98287.44;;;9.70;100.00
22743;BME280;11538;48.884;8.696;2022-11-15T05:31:25;98269.75;;;9.73;100.00
22743;BME280;11538;48.884;8.696;2022-11-15T05:33:53;98281.91;;;9.75;100.00
22743;BME280;11538;48.884;8.696;2022-11-15T05:36:36;98283.00;;;9.74;100.00
22743;BME280;11538;48.884;8.696;2022-11-15T05:39:05;98273.78;;;9.75;100.00
22743;BME280;11538;48.884;8.696;2022-11-15T05:41:48;98276.97;;;9.77;100.00
22743;BME280;11538;48.884;8.696;2022-11-15T05:44:17;98288.31;;;9.79;100.00
22743;BME280;11538;48.884;8.696;2022-11-15T05:46:48;98281.41;;;9.73;100.00
22743;BME280;11538;48.884;8.696;2022-11-15T05:49:19;98278.81;;;9.68;100.00
22743;BME280;11538;48.884;8.696;2022-11-15T05:51:48;98275.63;;;9.66;100.00
22743;BME280;11538;48.884;8.696;2022-11-15T05:54:16;98264.59;;;9.62;100.00
22743;BME280;11538;48.884;8.696;2022-11-15T05:56:43;98258.56;;;9.65;100.00
22743;BME280;11538;48.884;8.696;2022-11-15T05:59:11;98240.09;;;9.68;100.00
22743;BME280;11538;48.884;8.696;2022-11-15T06:01:38;98246.31;;;9.68;100.00
22743;BME280;11538;48.884;8.696;2022-11-15T06:04:06;98261.47;;;9.69;100.00
22743;BME280;11538;48.884;8.696;2022-11-15T06:06:33;98282.75;;;9.62;100.00
22743;BME280;11538;48.884;8.696;2022-11-15T06:09:00;98281.38;;;9.50;100.00
22743;BME280;11538;48.884;8.696;2022-11-15T06:11:27;98275.47;;;9.48;100.00
22743;BME280;11538;48.884;8.696;2022-11-15T06:13:54;98268.63;;;9.51;100.00
22743;BME280;11538;48.884;8.696;2022-11-15T06:16:21;98273.16;;;9.56;100.00
22743;BME280;11538;48.884;8.696;2022-11-15T06:18:47;98276.03;;;9.59;100.00
22743;BME280;11538;48.884;8.696;2022-11-15T06:21:14;98281.16;;;9.61;100.00
22743;BME280;11538;48.884;8.696;2022-11-15T06:23:41;98284.03;;;9.64;100.00
22743;BME280;11538;48.884;8.696;2022-11-15T06:26:08;98290.28;;;9.65;100.00
22743;BME280;11538;48.884;8.696;2022-11-15T06:28:34;98294.56;;;9.66;100.00
22743;BME280;11538;48.884;8.696;2022-11-15T06:31:06;98284.84;;;9.65;100.00
22743;BME280;11538;48.884;8.696;2022-11-15T06:33:33;98286.75;;;9.64;100.00
22743;BME280;11538;48.884;8.696;2022-11-15T06:36:02;98283.44;;;9.68;100.00
22743;BME280;11538;48.884;8.696;2022-11-15T06:38:29;98288.06;;;9.67;100.00
22743;BME280;11538;48.884;8.696;2022-11-15T06:41:04;98294.38;;;9.62;100.00
22743;BME280;11538;48.884;8.696;2022-11-15T06:43:31;98287.97;;;9.58;100.00
22743;BME280;11538;48.884;8.696;2022-11-15T06:46:00;98292.00;;;9.61;100.00
22743;BME280;11538;48.884;8.696;2022-11-15T06:48:28;98286.75;;;9.64;100.00
22743;BME280;11538;48.884;8.696;2022-11-15T06:50:57;98289.94;;;9.66;100.00
22743;BME280;11538;48.884;8.696;2022-11-15T06:53:25;98298.88;;;9.67;100.00
22743;BME280;11538;48.884;8.696;2022-11-15T06:55:52;98292.03;;;9.70;100.00
22743;BME280;11538;48.884;8.696;2022-11-15T06:58:21;98302.88;;;9.70;100.00
22743;BME280;11538;48.884;8.696;2022-11-15T07:00:48;98301.75;;;9.71;100.00
22743;BME280;11538;48.884;8.696;2022-11-15T07:03:15;98302.09;;;9.69;100.00
22743;BME280;11538;48.884;8.696;2022-11-15T07:05:41;98306.69;;;9.69;100.00
22743;BME280;11538;48.884;8.696;2022-11-15T07:08:08;98306.91;;;9.72;100.00
22743;BME280;11538;48.884;8.696;2022-11-15T07:10:36;98309.47;;;9.77;100.00
22743;BME280;11538;48.884;8.696;2022-11-15T07:13:03;98306.47;;;9.79;100.00
22743;BME280;11538;48.884;8.696;2022-11-15T07:15:29;98307.28;;;9.79;100.00
22743;BME280;11538;48.884;8.696;2022-11-15T07:18:00;98303.94;;;9.83;100.00
22743;BME280;11538;48.884;8.696;2022-11-15T07:20:27;98304.44;;;9.85;100.00
22743;BME280;11538;48.884;8.696;2022-11-15T07:23:04;98302.22;;;9.87;100.00
22743;BME280;11538;48.884;8.696;2022-11-15T07:25:31;98293.50;;;9.90;100.00
22743;BME280;11538;48.884;8.696;2022-11-15T07:27:59;98288.94;;;9.99;100.00
22743;BME280;11538;48.884;8.696;2022-11-15T07:30:26;98292.75;;;9.98;100.00
22743;BME280;11538;48.884;8.696;2022-11-15T07:32:58;98281.63;;;10.00;100.00
22743;BME280;11538;48.884;8.696;2022-11-15T07:35:27;98299.78;;;9.99;100.00
22743;BME280;11538;48.884;8.696;2022-11-15T07:40:22;98288.94;;;9.99;100.00
22743;BME280;11538;48.884;8.696;2022-11-15T07:42:49;98284.56;;;10.12;100.00
22743;BME280;11538;48.884;8.696;2022-11-15T07:45:20;98283.56;;;10.31;100.00
22743;BME280;11538;48.884;8.696;2022-11-15T07:47:48;98284.72;;;10.38;100.00
22743;BME280;11538;48.884;8.696;2022-11-15T07:50:16;98282.00;;;10.38;100.00
22743;BME280;11538;48.884;8.696;2022-11-15T07:52:45;98292.56;;;10.40;100.00
22743;BME280;11538;48.884;8.696;2022-11-15T07:55:11;98290.53;;;10.46;100.00
22743;BME280;11538;48.884;8.696;2022-11-15T07:57:38;98299.13;;;10.48;100.00
22743;BME280;11538;48.884;8.696;2022-11-15T08:00:06;98297.41;;;10.52;100.00
22743;BME280;11538;48.884;8.696;2022-11-15T08:02:33;98295.66;;;10.56;100.00
22743;BME280;11538;48.884;8.696;2022-11-15T08:05:00;98295.06;;;10.59;100.00
22743;BME280;11538;48.884;8.696;2022-11-15T08:07:29;98287.59;;;10.65;100.00
22743;BME280;11538;48.884;8.696;2022-11-15T08:09:57;98290.31;;;10.65;100.00
22743;BME280;11538;48.884;8.696;2022-11-15T08:12:26;98283.47;;;10.67;100.00
22743;BME280;11538;48.884;8.696;2022-11-15T08:14:53;98285.84;;;10.69;100.00
22743;BME280;11538;48.884;8.696;2022-11-15T08:17:19;98280.75;;;10.67;100.00
22743;BME280;11538;48.884;8.696;2022-11-15T08:19:46;98273.25;;;10.73;100.00
22743;BME280;11538;48.884;8.696;2022-11-15T08:22:13;98273.44;;;10.77;100.00
22743;BME280;11538;48.884;8.696;2022-11-15T08:24:40;98272.81;;;10.80;100.00
22743;BME280;11538;48.884;8.696;2022-11-15T08:27:07;98277.78;;;10.87;100.00
22743;BME280;11538;48.884;8.696;2022-11-15T08:29:43;98274.13;;;10.91;100.00
22743;BME280;11538;48.884;8.696;2022-11-15T08:32:10;98273.03;;;10.92;100.00
22743;BME280;11538;48.884;8.696;2022-11-15T08:34:38;98266.97;;;10.95;100.00
22743;BME280;11538;48.884;8.696;2022-11-15T08:37:05;98258.16;;;10.90;100.00
22743;BME280;11538;48.884;8.696;2022-11-15T08:39:32;98258.63;;;10.83;100.00
22743;BME280;11538;48.884;8.696;2022-11-15T08:41:59;98260.84;;;10.81;100.00
22743;BME280;11538;48.884;8.696;2022-11-15T08:44:25;98256.56;;;10.80;100.00
22743;BME280;11538;48.884;8.696;2022-11-15T08:46:52;98252.41;;;10.82;100.00
22743;BME280;11538;48.884;8.696;2022-11-15T08:49:19;98249.06;;;10.86;100.00
22743;BME280;11538;48.884;8.696;2022-11-15T08:51:46;98243.31;;;10.87;100.00
22743;BME280;11538;48.884;8.696;2022-11-15T08:54:13;98253.69;;;10.94;100.00
22743;BME280;11538;48.884;8.696;2022-11-15T08:56:39;98247.34;;;10.99;100.00
22743;BME280;11538;48.884;8.696;2022-11-15T08:59:06;98246.06;;;11.05;100.00
22743;BME280;11538;48.884;8.696;2022-11-15T09:01:33;98247.03;;;11.09;100.00
22743;BME280;11538;48.884;8.696;2022-11-15T09:04:00;98246.41;;;11.12;100.00
22743;BME280;11538;48.884;8.696;2022-11-15T09:06:27;98247.38;;;11.16;100.00
22743;BME280;11538;48.884;8.696;2022-11-15T09:08:56;98247.03;;;11.18;100.00
22743;BME280;11538;48.884;8.696;2022-11-15T09:11:24;98252.03;;;11.24;100.00
22743;BME280;11538;48.884;8.696;2022-11-15T09:13:50;98248.97;;;11.26;100.00
22743;BME280;11538;48.884;8.696;2022-11-15T09:16:18;98243.25;;;11.27;100.00
22743;BME280;11538;48.884;8.696;2022-11-15T09:18:45;98238.28;;;11.30;100.00
22743;BME280;11538;48.884;8.696;2022-11-15T09:21:12;98229.03;;;11.31;100.00
22743;BME280;11538;48.884;8.696;2022-11-15T09:23:39;98224.41;;;11.31;100.00
22743;BME280;11538;48.884;8.696;2022-11-15T09:26:06;98226.78;;;11.33;100.00
22743;BME280;11538;48.884;8.696;2022-11-15T09:28:33;98225.69;;;11.34;100.00
22743;BME280;11538;48.884;8.696;2022-11-15T09:31:03;98228.25;;;11.39;100.00
22743;BME280;11538;48.884;8.696;2022-11-15T09:33:30;98223.63;;;11.39;100.00
22743;BME280;11538;48.884;8.696;2022-11-15T09:36:06;98220.25;;;11.43;100.00
22743;BME280;11538;48.884;8.696;2022-11-15T09:38:33;98220.09;;;11.48;100.00
22743;BME280;11538;48.884;8.696;2022-11-15T09:41:25;98218.00;;;11.53;100.00
22743;BME280;11538;48.884;8.696;2022-11-15T09:49:58;98213.06;;;11.64;100.00
22743;BME280;11538;48.884;8.696;2022-11-15T09:52:27;98219.28;;;11.65;100.00
22743;BME280;11538;48.884;8.696;2022-11-15T09:54:54;98213.38;;;11.63;100.00
22743;BME280;11538;48.884;8.696;2022-11-15T09:57:38;98218.81;;;11.63;100.00
22743;BME280;11538;48.884;8.696;2022-11-15T10:00:18;98207.63;;;11.64;100.00
22743;BME280;11538;48.884;8.696;2022-11-15T10:03:18;98204.41;;;11.71;100.00
22743;BME280;11538;48.884;8.696;2022-11-15T10:05:49;98202.66;;;11.75;100.00
22743;BME280;11538;48.884;8.696;2022-11-15T10:11:08;98196.25;;;11.80;100.00
22743;BME280;11538;48.884;8.696;2022-11-15T10:14:08;98191.63;;;11.80;100.00
22743;BME280;11538;48.884;8.696;2022-11-15T10:22:24;98196.41;;;11.92;100.00
22743;BME280;11538;48.884;8.696;2022-11-15T10:27:45;98187.47;;;12.01;100.00
22743;BME280;11538;48.884;8.696;2022-11-15T10:30:16;98188.09;;;12.06;100.00
22743;BME280;11538;48.884;8.696;2022-11-15T10:32:45;98173.53;;;12.11;100.00
22743;BME280;11538;48.884;8.696;2022-11-15T10:35:28;98166.66;;;12.13;100.00
22743;BME280;11538;48.884;8.696;2022-11-15T10:38:10;98170.16;;;12.14;100.00
22743;BME280;11538;48.884;8.696;2022-11-15T10:40:38;98167.78;;;12.12;100.00
22743;BME280;11538;48.884;8.696;2022-11-15T10:45:36;98170.00;;;12.10;100.00
22743;BME280;11538;48.884;8.696;2022-11-15T10:48:21;98173.84;;;12.09;100.00
22743;BME280;11538;48.884;8.696;2022-11-15T10:50:50;98164.59;;;12.10;100.00
22743;BME280;11538;48.884;8.696;2022-11-15T10:53:29;98157.06;;;12.07;100.00
22743;BME280;11538;48.884;8.696;2022-11-15T10:56:04;98158.66;;;12.08;100.00
22743;BME280;11538;48.884;8.696;2022-11-15T10:58:34;98158.31;;;12.10;100.00
22743;BME280;11538;48.884;8.696;2022-11-15T11:01:19;98152.59;;;12.11;100.00
22743;BME280;11538;48.884;8.696;2022-11-15T11:04:03;98157.69;;;12.13;100.00
22743;BME280;11538;48.884;8.696;2022-11-15T11:06:46;98157.03;;;12.16;100.00
22743;BME280;11538;48.884;8.696;2022-11-15T11:09:33;98158.78;;;12.21;100.00
22743;BME280;11538;48.884;8.696;2022-11-15T11:12:04;98144.84;;;12.22;100.00
22743;BME280;11538;48.884;8.696;2022-11-15T11:14:33;98147.06;;;12.29;100.00
22743;BME280;11538;48.884;8.696;2022-11-15T11:17:13;98142.06;;;12.40;100.00
22743;BME280;11538;48.884;8.696;2022-11-15T11:19:55;98130.94;;;12.54;100.00
22743;BME280;11538;48.884;8.696;2022-11-15T11:22:32;98126.53;;;12.70;100.00
22743;BME280;11538;48.884;8.696;2022-11-15T11:25:11;98120.97;;;12.88;100.00
22743;BME280;11538;48.884;8.696;2022-11-15T11:27:57;98118.78;;;13.02;100.00
22743;BME280;11538;48.884;8.696;2022-11-15T11:33:38;98105.31;;;13.06;100.00
22743;BME280;11538;48.884;8.696;2022-11-15T11:36:38;98108.81;;;13.07;100.00
22743;BME280;11538;48.884;8.696;2022-11-15T11:39:26;98102.13;;;13.04;100.00
22743;BME280;11538;48.884;8.696;2022-11-15T11:42:04;98105.63;;;13.05;100.00
22743;BME280;11538;48.884;8.696;2022-11-15T11:45:11;98089.75;;;13.07;100.00
22743;BME280;11538;48.884;8.696;2022-11-15T11:48:18;98083.63;;;13.10;100.00
22743;BME280;11538;48.884;8.696;2022-11-15T11:50:47;98092.94;;;13.09;100.00
22743;BME280;11538;48.884;8.696;2022-11-15T11:53:27;98086.38;;;13.10;100.00
22743;BME280;11538;48.884;8.696;2022-11-15T11:56:01;98090.38;;;13.12;100.00
22743;BME280;11538;48.884;8.696;2022-11-15T11:58:42;98082.97;;;13.13;100.00
22743;BME280;11538;48.884;8.696;2022-11-15T12:01:33;98079.47;;;13.12;100.00
22743;BME280;11538;48.884;8.696;2022-11-15T12:04:08;98073.69;;;13.14;100.00
22743;BME280;11538;48.884;8.696;2022-11-15T12:09:35;98071.16;;;13.09;100.00
22743;BME280;11538;48.884;8.696;2022-11-15T12:14:54;98070.31;;;12.96;100.00
22743;BME280;11538;48.884;8.696;2022-11-15T12:17:28;98075.63;;;12.92;100.00
22743;BME280;11538;48.884;8.696;2022-11-15T12:20:20;98066.69;;;12.92;100.00
22743;BME280;11538;48.884;8.696;2022-11-15T12:25:38;98050.56;;;12.86;100.00
22743;BME280;11538;48.884;8.696;2022-11-15T12:28:27;98043.16;;;12.87;100.00
22743;BME280;11538;48.884;8.696;2022-11-15T12:31:05;98039.31;;;12.88;100.00
22743;BME280;11538;48.884;8.696;2022-11-15T12:33:40;98040.91;;;12.89;100.00
22743;BME280;11538;48.884;8.696;2022-11-15T12:36:40;98042.66;;;12.94;100.00
22743;BME280;11538;48.884;8.696;2022-11-15T12:39:09;98041.97;;;12.97;100.00
22743;BME280;11538;48.884;8.696;2022-11-15T12:41:39;98037.78;;;12.99;100.00
22743;BME280;11538;48.884;8.696;2022-11-15T12:47:25;98028.94;;;13.02;100.00
22743;BME280;11538;48.884;8.696;2022-11-15T12:49:53;98026.81;;;13.08;100.00
22743;BME280;11538;48.884;8.696;2022-11-15T12:52:20;98019.56;;;13.12;100.00
22743;BME280;11538;48.884;8.696;2022-11-15T12:54:52;98020.50;;;13.16;100.00
22743;BME280;11538;48.884;8.696;2022-11-15T13:02:24;98002.81;;;13.23;100.00
22743;BME280;11538;48.884;8.696;2022-11-15T13:04:53;98001.91;;;13.31;100.00
22743;BME280;11538;48.884;8.696;2022-11-15T13:17:46;97964.44;;;13.86;100.00
22743;BME280;11538;48.884;8.696;2022-11-15T13:30:53;97950.25;;;13.93;100.00
22743;BME280;11538;48.884;8.696;2022-11-15T13:33:37;97943.53;;;13.91;100.00
22743;BME280;11538;48.884;8.696;2022-11-15T13:36:13;97941.72;;;13.82;100.00
22743;BME280;11538;48.884;8.696;2022-11-15T13:38:43;97941.50;;;13.75;100.00
22743;BME280;11538;48.884;8.696;2022-11-15T13:41:20;97936.59;;;13.68;100.00
22743;BME280;11538;48.884;8.696;2022-11-15T13:43:49;97934.91;;;13.64;100.00
22743;BME280;11538;48.884;8.696;2022-11-15T13:46:27;97928.09;;;13.57;100.00
22743;BME280;11538;48.884;8.696;2022-11-15T13:49:01;97918.66;;;13.55;100.00
22743;BME280;11538;48.884;8.696;2022-11-15T13:51:35;97923.22;;;13.51;100.00
22743;BME280;11538;48.884;8.696;2022-11-15T13:54:28;97921.63;;;13.50;100.00
22743;BME280;11538;48.884;8.696;2022-11-15T13:59:27;97918.44;;;13.48;100.00
22743;BME280;11538;48.884;8.696;2022-11-15T14:01:57;97912.53;;;13.45;100.00
22743;BME280;11538;48.884;8.696;2022-11-15T14:04:26;97913.00;;;13.48;100.00
22743;BME280;11538;48.884;8.696;2022-11-15T14:06:57;97902.22;;;13.51;100.00
22743;BME280;11538;48.884;8.696;2022-11-15T14:09:33;97895.88;;;13.47;100.00
22743;BME280;11538;48.884;8.696;2022-11-15T14:12:19;97895.50;;;13.49;100.00
22743;BME280;11538;48.884;8.696;2022-11-15T14:14:48;97892.31;;;13.59;100.00
22743;BME280;11538;48.884;8.696;2022-11-15T14:17:34;97886.09;;;13.58;100.00
22743;BME280;11538;48.884;8.696;2022-11-15T14:20:02;97882.47;;;13.54;100.00
22743;BME280;11538;48.884;8.696;2022-11-15T14:22:30;97874.16;;;13.51;100.00
22743;BME280;11538;48.884;8.696;2022-11-15T14:25:29;97877.25;;;13.49;100.00
22743;BME280;11538;48.884;8.696;2022-11-15T14:30:44;97865.00;;;13.43;100.00
22743;BME280;11538;48.884;8.696;2022-11-15T14:33:25;97860.19;;;13.40;100.00
22743;BME280;11538;48.884;8.696;2022-11-15T14:35:56;97867.13;;;13.37;100.00
22743;BME280;11538;48.884;8.696;2022-11-15T14:38:24;97865.91;;;13.47;100.00
22743;BME280;11538;48.884;8.696;2022-11-15T14:40:51;97852.28;;;13.59;100.00
22743;BME280;11538;48.884;8.696;2022-11-15T14:43:18;97850.91;;;13.66;100.00
22743;BME280;11538;48.884;8.696;2022-11-15T14:45:45;97847.69;;;13.76;100.00
22743;BME280;11538;48.884;8.696;2022-11-15T14:48:12;97843.03;;;13.77;98.62
22743;BME280;11538;48.884;8.696;2022-11-15T14:50:38;97851.88;;;13.73;96.54
22743;BME280;11538;48.884;8.696;2022-11-15T14:53:05;97853.38;;;13.71;96.49
22743;BME280;11538;48.884;8.696;2022-11-15T14:55:34;97848.41;;;13.60;96.75